Terminal Aerodrome Forecast
Issued by NWS

Current Version | Previous Version | Text Only | Print | Product List | Glossary On
Versions: 1 2 3 4 5 6 7 8 9 10 11 12 13 14 15 16 17 18 19 20 21 22 23 24 25 26 27 28 29 30 31 32 33 34 35 36 37 38 39 40 41 42 43 44 45 46 47 48 49 50
000
FTUS45 KBOU 012339
TAFAPA
TAF
KAPA 012339Z 0200/0224 17014KT P6SM VCSH FEW080 BKN120
      TEMPO 0200/0201 VRB20G30KT -TSRA BKN070CB
     FM020100 22011KT P6SM VCSH FEW070 BKN120
     FM020300 20009KT P6SM FEW080 SCT110 BKN150
     FM020600 21010KT P6SM SKC
     FM021600 26010KT P6SM FEW110
     FM021900 VRB05KT P6SM FEW100=

USA.gov is the U.S. government's official web portal to all federal, state and local government web resources and services.